createdAt,value
2019-06-10T00:00:51.711Z,101853.84
2019-06-10T00:03:20.888Z,101851.91
2019-06-10T00:05:51.760Z,101851.03
2019-06-10T00:08:21.206Z,101845.21
2019-06-10T00:10:51.053Z,101849.48
2019-06-10T00:13:21.013Z,101843.38
2019-06-10T00:15:51.570Z,101849.98
2019-06-10T00:18:37.262Z,101847.44
2019-06-10T00:20:52.214Z,101842.11
2019-06-10T00:23:21.471Z,101831.06
2019-06-10T00:25:51.639Z,101836.69
2019-06-10T00:28:21.780Z,101834.95
2019-06-10T00:30:51.687Z,101830.20
2019-06-10T00:33:21.651Z,101828.46
2019-06-10T00:35:51.519Z,101822.55
2019-06-10T00:38:21.378Z,101826.62
2019-06-10T00:40:51.420Z,101826.03
2019-06-10T00:43:21.356Z,101825.83
2019-06-10T00:45:51.500Z,101826.22
2019-06-10T00:48:26.078Z,101828.16
2019-06-10T00:50:51.950Z,101823.89
2019-06-10T00:53:21.547Z,101820.38
2019-06-10T00:55:51.672Z,101819.21
2019-06-10T00:58:21.616Z,101827.09
2019-06-10T01:00:51.701Z,101833.19
2019-06-10T01:03:21.144Z,101826.41
2019-06-10T01:05:50.836Z,101823.30
2019-06-10T01:08:21.420Z,101825.05
2019-06-10T01:10:52.215Z,101823.30
2019-06-10T01:13:21.646Z,101815.16
2019-06-10T01:15:51.215Z,101807.39
2019-06-10T01:18:34.711Z,101807.88
2019-06-10T01:20:51.702Z,101800.81
2019-06-10T01:23:21.870Z,101795.27
2019-06-10T01:25:51.252Z,101796.73
2019-06-10T01:28:22.010Z,101795.58
2019-06-10T01:30:51.803Z,101791.12
2019-06-10T01:33:21.585Z,101787.44
2019-06-10T01:35:51.537Z,101782.97
2019-06-10T01:38:21.278Z,101778.59
2019-06-10T01:40:50.983Z,101770.16
2019-06-10T01:43:21.470Z,101762.22
2019-06-10T01:45:53.369Z,101756.02
2019-06-10T01:48:22.564Z,101763.78
2019-06-10T01:50:51.722Z,101757.47
2019-06-10T01:53:22.081Z,101756.12
2019-06-10T01:55:52.017Z,101746.72
2019-06-10T01:58:23.580Z,101747.30
2019-06-10T02:01:15.635Z,101745.37
2019-06-10T02:03:43.214Z,101744.58
2019-06-10T02:06:20.502Z,101739.64
2019-06-10T02:08:47.419Z,101739.56
2019-06-10T02:11:18.765Z,101730.52
2019-06-10T02:13:51.400Z,101730.06
2019-06-10T02:16:23.881Z,101718.89
2019-06-10T02:19:00.322Z,101716.66
2019-06-10T02:21:24.417Z,101712.41
2019-06-10T02:23:53.442Z,101717.84
2019-06-10T02:26:23.694Z,101704.47
2019-06-10T02:28:53.036Z,101697.79
2019-06-10T02:31:30.127Z,101700.22
2019-06-10T02:33:53.126Z,101691.52
2019-06-10T02:36:30.826Z,101687.13
2019-06-10T02:38:54.123Z,101686.25
2019-06-10T02:41:31.692Z,101679.86
2019-06-10T02:43:54.311Z,101670.95
2019-06-10T02:46:43.826Z,101663.78
2019-06-10T02:49:29.833Z,101657.77
2019-06-10T02:51:44.501Z,101644.58
2019-06-10T02:54:16.305Z,101642.84
2019-06-10T02:56:44.703Z,101637.41
2019-06-10T02:59:15.912Z,101631.60
2019-06-10T03:01:44.844Z,101639.16
2019-06-10T03:04:14.530Z,101651.36
2019-06-10T03:06:45.193Z,101649.06
2019-06-10T03:09:16.129Z,101643.64
2019-06-10T03:11:48.306Z,101652.17
2019-06-10T03:14:17.765Z,101635.88
2019-06-10T03:16:52.816Z,101635.08
2019-06-10T03:19:39.728Z,101623.84
2019-06-10T03:21:52.979Z,101621.34
2019-06-10T03:24:23.965Z,101617.27
2019-06-10T03:26:53.069Z,101619.22
2019-06-10T03:29:24.636Z,101617.47
2019-06-10T03:31:55.308Z,101615.05
2019-06-10T03:34:33.584Z,101626.56
2019-06-10T03:36:55.347Z,101619.39
2019-06-10T03:39:26.889Z,101627.92
2019-06-10T03:41:55.498Z,101624.65
2019-06-10T03:44:26.366Z,101622.48
2019-06-10T03:46:55.666Z,101624.23
2019-06-10T03:49:27.045Z,101622.31
2019-06-10T03:51:56.925Z,101623.57
2019-06-10T03:54:28.214Z,101626.18
2019-06-10T03:56:56.984Z,101630.84
2019-06-10T03:59:29.039Z,101621.94
2019-06-10T04:01:57.286Z,101612.61
2019-06-10T04:06:57.355Z,101613.94
2019-06-10T04:09:27.485Z,101623.27
2019-06-10T04:11:57.535Z,101623.05
2019-06-10T04:14:28.446Z,101625.95
2019-06-10T04:16:57.676Z,101634.47
2019-06-10T04:19:27.487Z,101626.13
2019-06-10T04:21:58.082Z,101634.16
2019-06-10T04:24:28.626Z,101631.86
2019-06-10T04:26:58.004Z,101631.38
2019-06-10T04:29:28.667Z,101628.56
2019-06-10T04:32:03.065Z,101631.17
2019-06-10T04:34:33.471Z,101627.86
2019-06-10T04:37:03.685Z,101625.15
2019-06-10T04:39:33.653Z,101628.25
2019-06-10T04:42:03.050Z,101619.13
2019-06-10T04:44:33.119Z,101618.91
2019-06-10T04:47:02.837Z,101615.23
2019-06-10T04:49:33.687Z,101604.27
2019-06-10T04:52:04.411Z,101604.81
2019-06-10T04:54:33.607Z,101604.64
2019-06-10T04:57:02.812Z,101599.65
2019-06-10T04:59:33.632Z,101600.41
2019-06-10T05:02:05.660Z,101600.20
2019-06-10T05:04:34.030Z,101596.30
2019-06-10T05:07:03.210Z,101590.30
2019-06-10T05:09:33.584Z,101594.20
2019-06-10T05:12:03.669Z,101589.41
2019-06-10T05:14:33.481Z,101585.02
2019-06-10T05:17:03.447Z,101601.64
2019-06-10T05:19:36.972Z,101600.97
2019-06-10T05:22:06.152Z,101588.91
2019-06-10T05:24:35.333Z,101586.08
2019-06-10T05:27:04.970Z,101575.38
2019-06-10T05:29:34.172Z,101567.00
2019-06-10T05:32:03.473Z,101571.23
2019-06-10T05:34:35.014Z,101565.58
2019-06-10T05:37:05.810Z,101561.31
2019-06-10T05:39:35.812Z,101555.28
2019-06-10T05:42:05.267Z,101555.05
2019-06-10T05:44:35.858Z,101562.38
2019-06-10T05:47:05.903Z,101550.68
2019-06-10T05:49:36.146Z,101542.59
2019-06-10T05:52:05.511Z,101546.61
2019-06-10T05:54:35.473Z,101540.59
2019-06-10T05:57:04.919Z,101547.50
2019-06-10T05:59:35.816Z,101541.48
2019-06-10T06:02:05.369Z,101531.83
2019-06-10T06:04:36.070Z,101534.72
2019-06-10T06:07:05.634Z,101529.86
2019-06-10T06:09:35.408Z,101532.50
2019-06-10T06:12:04.773Z,101522.93
2019-06-10T06:14:36.065Z,101522.34
2019-06-10T06:17:05.501Z,101522.03
2019-06-10T06:19:38.479Z,101517.84
2019-06-10T06:22:07.396Z,101508.47
2019-06-10T06:24:37.958Z,101494.72
2019-06-10T06:27:08.432Z,101499.06
2019-06-10T06:29:38.284Z,101495.84
2019-06-10T06:32:06.881Z,101499.94
2019-06-10T06:34:38.692Z,101496.29
2019-06-10T06:37:07.938Z,101498.64
2019-06-10T06:39:38.249Z,101493.84
2019-06-10T06:42:09.485Z,101491.61
2019-06-10T06:44:39.512Z,101494.95
2019-06-10T06:47:09.800Z,101484.66
2019-06-10T06:49:38.979Z,101486.76
2019-06-10T06:52:08.245Z,101487.52
2019-06-10T06:54:39.093Z,101484.66
2019-06-10T06:57:08.561Z,101490.60
2019-06-10T06:59:39.045Z,101493.33
2019-06-10T07:02:08.736Z,101503.13
2019-06-10T07:04:38.730Z,101495.44
2019-06-10T07:07:10.014Z,101499.98
2019-06-10T07:09:40.618Z,101483.80
2019-06-10T07:12:11.024Z,101493.28
2019-06-10T07:14:45.065Z,101492.86
2019-06-10T07:17:16.399Z,101482.03
2019-06-10T07:19:49.392Z,101485.33
2019-06-10T07:22:19.307Z,101490.41
2019-06-10T07:24:48.685Z,101491.30
2019-06-10T07:27:22.574Z,101493.66
2019-06-10T07:29:52.977Z,101499.06
2019-06-10T07:32:22.799Z,101483.29
2019-06-10T07:34:57.232Z,101479.66
2019-06-10T07:37:27.542Z,101478.23
2019-06-10T07:40:04.123Z,101476.98
2019-06-10T07:42:36.323Z,101479.17
2019-06-10T07:45:07.476Z,101469.75
2019-06-10T07:47:37.010Z,101473.31
2019-06-10T07:50:09.019Z,101463.84
2019-06-10T07:52:39.309Z,101461.05
2019-06-10T07:55:08.947Z,101466.11
2019-06-10T07:57:39.267Z,101470.09
2019-06-10T08:00:15.101Z,101466.36
2019-06-10T08:03:04.098Z,101464.77
2019-06-10T08:05:34.240Z,101459.64
2019-06-10T08:08:05.032Z,101444.04
2019-06-10T08:10:35.390Z,101447.66
2019-06-10T08:13:04.703Z,101432.84
2019-06-10T08:15:33.149Z,101434.58
2019-06-10T08:18:04.264Z,101430.89
2019-06-10T08:20:47.613Z,101434.75
2019-06-10T08:23:18.157Z,101433.97
2019-06-10T08:25:53.708Z,101435.52
2019-06-10T08:28:19.198Z,101427.53
2019-06-10T08:30:48.280Z,101425.47
2019-06-10T08:33:17.514Z,101425.65
2019-06-10T08:35:56.027Z,101423.44
2019-06-10T08:38:17.624Z,101424.15
2019-06-10T08:40:48.389Z,101427.45
2019-06-10T08:43:16.927Z,101424.17
2019-06-10T08:45:47.156Z,101417.28
2019-06-10T08:48:16.213Z,101415.91
2019-06-10T08:50:49.651Z,101409.34
2019-06-10T08:53:18.236Z,101405.21
2019-06-10T08:55:50.083Z,101404.81
2019-06-10T08:58:18.193Z,101398.96
2019-06-10T09:00:49.500Z,101400.85
2019-06-10T09:03:18.593Z,101395.52
2019-06-10T09:05:49.866Z,101387.59
2019-06-10T09:08:18.652Z,101377.60
2019-06-10T09:10:51.593Z,101385.41
2019-06-10T09:13:22.247Z,101380.41
2019-06-10T09:16:10.496Z,101377.30
2019-06-10T09:18:23.252Z,101371.09
2019-06-10T09:20:55.828Z,101373.49
2019-06-10T09:23:25.677Z,101367.98
2019-06-10T09:25:57.256Z,101369.05
2019-06-10T09:28:25.241Z,101368.70
2019-06-10T09:30:59.461Z,101363.50
2019-06-10T09:33:25.016Z,101365.21
2019-06-10T09:35:55.021Z,101367.99
2019-06-10T09:38:27.770Z,101366.91
2019-06-10T09:41:01.724Z,101365.86
2019-06-10T09:43:27.895Z,101362.97
2019-06-10T09:45:57.448Z,101358.35
2019-06-10T09:48:28.149Z,101354.22
2019-06-10T09:50:58.937Z,101355.25
2019-06-10T09:53:38.909Z,101357.28
2019-06-10T09:56:04.225Z,101353.78
2019-06-10T09:58:33.997Z,101355.41
2019-06-10T10:01:04.769Z,101350.20
2019-06-10T10:03:34.136Z,101351.58
2019-06-10T10:06:14.526Z,101349.91
2019-06-10T10:08:38.543Z,101340.11
2019-06-10T10:11:09.222Z,101337.23
2019-06-10T10:13:38.614Z,101347.50
2019-06-10T10:16:07.792Z,101340.28
2019-06-10T10:18:37.014Z,101343.14
2019-06-10T10:21:05.580Z,101337.66
2019-06-10T10:23:50.068Z,101335.59
2019-06-10T10:26:05.682Z,101341.44
2019-06-10T10:28:35.673Z,101340.73
2019-06-10T10:31:05.778Z,101338.81
2019-06-10T10:33:35.988Z,101328.62
2019-06-10T10:36:05.870Z,101330.68
2019-06-10T10:38:35.112Z,101328.99
2019-06-10T10:41:04.687Z,101333.48
2019-06-10T10:43:37.599Z,101325.50
2019-06-10T10:46:07.911Z,101319.31
2019-06-10T10:48:37.079Z,101314.91
2019-06-10T10:51:06.293Z,101307.26
2019-06-10T10:53:35.421Z,101305.20
2019-06-10T10:56:04.749Z,101293.95
2019-06-10T10:58:34.712Z,101287.05
2019-06-10T11:01:04.826Z,101286.70
2019-06-10T11:03:34.346Z,101289.83
2019-06-10T11:06:02.810Z,101280.81
2019-06-10T11:08:33.426Z,101280.81
2019-06-10T11:11:05.270Z,101274.92
2019-06-10T11:13:36.895Z,101275.91
2019-06-10T11:16:06.853Z,101272.44
2019-06-10T11:18:36.254Z,101277.92
2019-06-10T11:21:05.487Z,101269.08
2019-06-10T11:23:34.874Z,101264.70
2019-06-10T11:26:05.129Z,101264.67
2019-06-10T11:28:35.423Z,101252.49
2019-06-10T11:31:05.811Z,101252.35
2019-06-10T11:33:34.942Z,101252.50
2019-06-10T11:36:05.733Z,101248.16
2019-06-10T11:38:35.030Z,101255.50
2019-06-10T11:41:03.492Z,101257.92
2019-06-10T11:43:33.243Z,101253.67
2019-06-10T11:46:06.971Z,101249.73
2019-06-10T11:48:33.450Z,101234.32
2019-06-10T11:51:04.576Z,101225.91
2019-06-10T11:53:34.503Z,101231.19
2019-06-10T11:56:06.531Z,101235.70
2019-06-10T11:58:37.957Z,101239.19
2019-06-10T12:01:07.143Z,101235.45
2019-06-10T12:03:35.598Z,101232.94
2019-06-10T12:06:06.050Z,101226.59
2019-06-10T12:08:35.781Z,101226.80
2019-06-10T12:11:06.563Z,101213.40
2019-06-10T12:13:35.724Z,101201.71
2019-06-10T12:17:05.186Z,101204.57
2019-06-10T12:18:37.796Z,101201.99
2019-06-10T12:21:06.973Z,101198.25
2019-06-10T12:23:35.472Z,101197.23
2019-06-10T12:26:05.314Z,101193.44
2019-06-10T12:28:34.854Z,101184.83
2019-06-10T12:31:09.238Z,101174.12
2019-06-10T12:33:38.534Z,101177.22
2019-06-10T12:36:08.297Z,101189.88
2019-06-10T12:38:39.429Z,101190.19
2019-06-10T12:41:10.427Z,101183.03
2019-06-10T12:43:39.521Z,101183.74
2019-06-10T12:46:08.914Z,101182.98
2019-06-10T12:48:37.301Z,101187.79
2019-06-10T12:51:09.702Z,101184.98
2019-06-10T12:53:39.593Z,101180.79
2019-06-10T12:56:11.310Z,101180.75
2019-06-10T12:58:42.895Z,101169.13
2019-06-10T13:01:11.554Z,101177.56
2019-06-10T13:03:43.270Z,101168.65
2019-06-10T13:06:16.390Z,101169.70
2019-06-10T13:08:46.224Z,101170.57
2019-06-10T13:11:23.305Z,101171.66
2019-06-10T13:13:56.166Z,101169.16
2019-06-10T13:16:26.015Z,101164.00
2019-06-10T13:18:56.095Z,101165.08
2019-06-10T13:21:25.540Z,101168.39
2019-06-10T13:23:55.986Z,101166.19
2019-06-10T13:26:26.059Z,101161.34
2019-06-10T13:28:57.185Z,101152.88
2019-06-10T13:31:28.279Z,101145.83
2019-06-10T13:34:04.714Z,101154.97
2019-06-10T13:36:33.058Z,101158.22
2019-06-10T13:39:08.043Z,101152.93
2019-06-10T13:41:35.236Z,101146.50
2019-06-10T13:44:08.297Z,101152.08
2019-06-10T13:46:42.649Z,101151.31
2019-06-10T13:49:15.433Z,101146.14
2019-06-10T13:51:45.121Z,101135.06
2019-06-10T13:54:17.552Z,101141.69
2019-06-10T13:56:47.785Z,101142.77
2019-06-10T13:59:17.177Z,101140.03
2019-06-10T14:01:45.609Z,101136.34
2019-06-10T14:07:17.421Z,101133.30
2019-06-10T14:09:43.873Z,101134.59
2019-06-10T14:12:17.636Z,101137.41
2019-06-10T14:14:43.968Z,101133.51
2019-06-10T14:17:16.025Z,101124.13
2019-06-10T14:19:43.411Z,101122.41
2019-06-10T14:22:16.009Z,101111.83
2019-06-10T14:24:45.757Z,101099.73
2019-06-10T14:27:18.052Z,101089.68
2019-06-10T14:29:46.323Z,101086.40
2019-06-10T14:32:17.223Z,101087.94
2019-06-10T14:34:46.844Z,101086.89
2019-06-10T14:37:32.148Z,101085.70
2019-06-10T14:39:52.744Z,101083.94
2019-06-10T14:42:26.718Z,101088.94
2019-06-10T14:44:58.794Z,101081.81
2019-06-10T14:47:29.069Z,101090.36
2019-06-10T14:49:58.599Z,101088.90
2019-06-10T14:52:28.574Z,101088.23
2019-06-10T14:55:02.432Z,101083.95
2019-06-10T14:57:33.305Z,101081.33
2019-06-10T15:00:03.070Z,101072.57
2019-06-10T15:02:33.399Z,101070.67
2019-06-10T15:05:03.065Z,101067.69
2019-06-10T15:07:34.234Z,101058.65
2019-06-10T15:10:04.460Z,101061.98
2019-06-10T15:12:35.453Z,101066.88
2019-06-10T15:15:08.146Z,101068.64
2019-06-10T15:17:38.907Z,101069.30
2019-06-10T15:20:09.596Z,101072.73
2019-06-10T15:22:38.761Z,101067.04
2019-06-10T15:25:11.546Z,101055.72
2019-06-10T15:27:42.749Z,101057.23
2019-06-10T15:30:20.737Z,101052.36
2019-06-10T15:32:42.925Z,101047.62
2019-06-10T15:35:16.079Z,101053.19
2019-06-10T15:37:45.462Z,101050.84
2019-06-10T15:40:16.637Z,101058.59
2019-06-10T15:42:45.908Z,101056.17
2019-06-10T15:45:17.634Z,101053.41
2019-06-10T15:47:47.044Z,101054.87
2019-06-10T15:50:17.362Z,101061.05
2019-06-10T15:52:47.270Z,101056.25
2019-06-10T15:55:37.831Z,101056.28
2019-06-10T15:57:46.816Z,101050.13
2019-06-10T16:00:19.987Z,101045.66
2019-06-10T16:02:48.581Z,101047.98
2019-06-10T16:05:21.357Z,101041.64
2019-06-10T16:07:52.994Z,101034.97
2019-06-10T16:10:27.483Z,101045.19
2019-06-10T16:12:53.991Z,101034.56
2019-06-10T16:15:24.786Z,101032.22
2019-06-10T16:17:54.581Z,101020.55
2019-06-10T16:20:23.568Z,101014.73
2019-06-10T16:22:54.169Z,101010.27
2019-06-10T16:25:26.291Z,101014.75
2019-06-10T16:27:55.513Z,101006.69
2019-06-10T16:30:26.041Z,101011.67
2019-06-10T16:32:55.328Z,101006.17
2019-06-10T16:35:26.768Z,101000.34
2019-06-10T16:37:56.862Z,100989.66
2019-06-10T16:40:27.229Z,100986.35
2019-06-10T16:42:57.628Z,100978.91
2019-06-10T16:45:30.648Z,100980.94
2019-06-10T16:47:59.119Z,100979.33
2019-06-10T16:50:33.718Z,100973.28
2019-06-10T16:53:02.997Z,100973.90
2019-06-10T16:55:33.820Z,100976.29
2019-06-10T16:58:03.867Z,100975.25
2019-06-10T17:00:34.842Z,100976.59
2019-06-10T17:03:05.510Z,100979.99
2019-06-10T17:05:35.204Z,100971.02
2019-06-10T17:08:04.690Z,100972.61
2019-06-10T17:10:34.542Z,100971.66
2019-06-10T17:13:06.499Z,100973.23
2019-06-10T17:15:35.772Z,100966.19
2019-06-10T17:18:06.262Z,100958.83
2019-06-10T17:20:37.458Z,100960.55
2019-06-10T17:23:21.800Z,100960.73
2019-06-10T17:25:56.829Z,100968.13
2019-06-10T17:28:31.756Z,100965.02
2019-06-10T17:30:59.183Z,100969.30
2019-06-10T17:33:30.417Z,100967.09
2019-06-10T17:36:03.106Z,100972.31
2019-06-10T17:38:31.589Z,100966.31
2019-06-10T17:41:02.995Z,100967.19
2019-06-10T17:43:34.024Z,100965.50
2019-06-10T17:46:03.526Z,100967.23
2019-06-10T17:48:33.680Z,100967.25
2019-06-10T17:51:05.173Z,100966.76
2019-06-10T17:53:35.082Z,100967.62
2019-06-10T17:56:04.429Z,100972.80
2019-06-10T17:58:49.260Z,100975.91
2019-06-10T18:01:03.754Z,100981.47
2019-06-10T18:03:33.420Z,100986.63
2019-06-10T18:06:04.115Z,100992.64
2019-06-10T18:08:36.308Z,100990.61
2019-06-10T18:11:04.637Z,101003.95
2019-06-10T18:13:35.926Z,101005.85
2019-06-10T18:16:06.381Z,101007.19
2019-06-10T18:18:37.286Z,100999.29
2019-06-10T18:21:06.927Z,100992.21
2019-06-10T18:23:36.106Z,100988.59
2019-06-10T18:26:05.269Z,100990.95
2019-06-10T18:28:52.709Z,100987.81
2019-06-10T18:31:05.332Z,100993.25
2019-06-10T18:33:37.502Z,100978.64
2019-06-10T18:36:05.562Z,100983.59
2019-06-10T18:38:37.154Z,100981.14
2019-06-10T18:41:05.933Z,100969.11
2019-06-10T18:43:35.723Z,100977.79
2019-06-10T18:46:06.048Z,100971.59
2019-06-10T18:48:37.877Z,100964.53
2019-06-10T18:51:06.306Z,100959.70
2019-06-10T18:53:36.442Z,100958.93
2019-06-10T18:56:06.892Z,100963.17
2019-06-10T18:58:37.484Z,100961.72
2019-06-10T19:01:08.178Z,100958.77
2019-06-10T19:03:38.265Z,100941.60
2019-06-10T19:06:09.327Z,100944.32
2019-06-10T19:08:39.325Z,100950.77
2019-06-10T19:11:09.770Z,100959.98
2019-06-10T19:13:39.179Z,100963.05
2019-06-10T19:16:09.064Z,100976.35
2019-06-10T19:18:38.521Z,100963.06
2019-06-10T19:21:08.787Z,100963.16
2019-06-10T19:23:39.390Z,100979.12
2019-06-10T19:26:08.983Z,100980.42
2019-06-10T19:28:39.175Z,100991.23
2019-06-10T19:31:09.038Z,100997.25
2019-06-10T19:33:39.265Z,101008.35
2019-06-10T19:36:09.158Z,101011.62
2019-06-10T19:38:39.922Z,101010.88
2019-06-10T19:41:09.046Z,101007.78
2019-06-10T19:43:39.788Z,101004.44
2019-06-10T19:46:09.111Z,101007.88
2019-06-10T19:48:41.636Z,101008.12
2019-06-10T19:51:09.187Z,101000.53
2019-06-10T19:53:38.918Z,101006.52
2019-06-10T19:56:08.170Z,101005.05
2019-06-10T19:58:38.229Z,101004.90
2019-06-10T20:01:07.568Z,101012.63
2019-06-10T20:03:37.812Z,101011.62
2019-06-10T20:06:06.947Z,101019.70
2019-06-10T20:08:36.163Z,101021.44
2019-06-10T20:11:06.358Z,101031.20
2019-06-10T20:13:36.467Z,101020.83
2019-06-10T20:16:05.660Z,101012.20
2019-06-10T20:18:35.903Z,101006.32
2019-06-10T20:21:05.171Z,101008.59
2019-06-10T20:23:35.407Z,101009.75
2019-06-10T20:26:04.668Z,101011.91
2019-06-10T20:28:33.944Z,101016.94
2019-06-10T20:31:03.104Z,101019.95
2019-06-10T20:33:37.001Z,101019.24
2019-06-10T20:36:07.045Z,101013.85
2019-06-10T20:38:35.963Z,101023.48
2019-06-10T20:41:05.418Z,101013.92
2019-06-10T20:43:34.745Z,101022.11
2019-06-10T20:46:05.908Z,101028.22
2019-06-10T20:48:35.423Z,101035.62
2019-06-10T20:51:04.588Z,101031.06
2019-06-10T20:53:34.014Z,101033.44
2019-06-10T20:56:03.802Z,101036.17
2019-06-10T20:58:33.441Z,101030.34
2019-06-10T21:01:05.014Z,101039.41
2019-06-10T21:03:34.785Z,101029.27
2019-06-10T21:06:05.675Z,101022.95
2019-06-10T21:08:35.408Z,101014.97
2019-06-10T21:11:05.025Z,101010.45
2019-06-10T21:13:36.223Z,101012.60
2019-06-10T21:16:05.393Z,101004.98
2019-06-10T21:18:34.553Z,101002.69
2019-06-10T21:21:03.750Z,101005.56
2019-06-10T21:23:32.996Z,101011.02
2019-06-10T21:26:03.157Z,101013.47
2019-06-10T21:28:32.898Z,101010.45
2019-06-10T21:31:03.197Z,101004.41
2019-06-10T21:33:33.551Z,101000.02
2019-06-10T21:36:03.886Z,101000.84
2019-06-10T21:38:33.909Z,101005.66
2019-06-10T21:41:03.920Z,101007.38
2019-06-10T21:43:33.325Z,101017.08
2019-06-10T21:46:03.653Z,101019.35
2019-06-10T21:48:32.794Z,101009.94
2019-06-10T21:51:01.974Z,101009.58
2019-06-10T21:53:32.245Z,101011.59
2019-06-10T21:56:03.183Z,101018.78
2019-06-10T21:58:33.651Z,101025.61
2019-06-10T22:01:12.579Z,101017.34
2019-06-10T22:03:35.044Z,101014.18
2019-06-10T22:06:05.022Z,101019.20
2019-06-10T22:08:34.894Z,101018.45
2019-06-10T22:11:05.028Z,101025.85
2019-06-10T22:13:38.005Z,101031.16
2019-06-10T22:16:07.799Z,101014.59
2019-06-10T22:18:38.762Z,101015.05
2019-06-10T22:21:08.196Z,101020.70
2019-06-10T22:23:42.242Z,101026.91
2019-06-10T22:26:13.114Z,101019.48
2019-06-10T22:28:43.294Z,101023.16
2019-06-10T22:31:22.299Z,101023.37
2019-06-10T22:33:43.486Z,101021.79
2019-06-10T22:36:15.707Z,101020.34
2019-06-10T22:38:45.964Z,101019.70
2019-06-10T22:41:15.235Z,101023.23
2019-06-10T22:43:44.737Z,101020.26
2019-06-10T22:46:14.413Z,101024.48
2019-06-10T22:48:44.309Z,101023.98
2019-06-10T22:51:14.289Z,101008.62
2019-06-10T22:53:44.171Z,101007.14
2019-06-10T22:56:13.349Z,101005.42
2019-06-10T22:58:42.534Z,101007.86
2019-06-10T23:01:12.464Z,101004.75
2019-06-10T23:03:42.361Z,100996.56
2019-06-10T23:06:12.634Z,100992.69
2019-06-10T23:08:43.753Z,100986.95
2019-06-10T23:11:13.092Z,100988.42
2019-06-10T23:13:44.276Z,100986.19
2019-06-10T23:16:14.387Z,100991.76
2019-06-10T23:18:46.330Z,100989.03
2019-06-10T23:21:17.768Z,100985.94
2019-06-10T23:23:46.961Z,100989.89
2019-06-10T23:26:16.152Z,100989.42
2019-06-10T23:28:46.105Z,100995.85
2019-06-10T23:31:15.282Z,100986.80
2019-06-10T23:33:44.433Z,100988.78
2019-06-10T23:36:14.691Z,100991.58
2019-06-10T23:38:44.149Z,100994.53
2019-06-10T23:41:13.641Z,101001.20
2019-06-10T23:43:42.372Z,100994.67
2019-06-10T23:46:12.108Z,100989.28
2019-06-10T23:48:42.380Z,100985.05
2019-06-10T23:51:12.193Z,100982.17
2019-06-10T23:53:41.447Z,100983.83
2019-06-10T23:56:12.704Z,100985.84
2019-06-10T23:58:43.333Z,100977.29
